sensor_id;sensor_type;location;lat;lon;timestamp;P1;durP1;ratioP1;P2;durP2;ratioP2
24995;SDS011;13016;52.162;21.034;2022-12-18T00:00:44;22.80;;;12.60;;
24995;SDS011;13016;52.162;21.034;2022-12-18T00:03:10;24.10;;;13.00;;
24995;SDS011;13016;52.162;21.034;2022-12-18T00:05:35;25.50;;;12.90;;
24995;SDS011;13016;52.162;21.034;2022-12-18T00:08:01;23.80;;;12.10;;
24995;SDS011;13016;52.162;21.034;2022-12-18T00:10:27;23.20;;;12.80;;
24995;SDS011;13016;52.162;21.034;2022-12-18T00:12:53;18.80;;;11.60;;
24995;SDS011;13016;52.162;21.034;2022-12-18T00:15:18;22.60;;;12.70;;
24995;SDS011;13016;52.162;21.034;2022-12-18T00:17:44;22.90;;;12.80;;
24995;SDS011;13016;52.162;21.034;2022-12-18T00:20:09;21.90;;;12.70;;
24995;SDS011;13016;52.162;21.034;2022-12-18T00:22:34;23.90;;;13.20;;
24995;SDS011;13016;52.162;21.034;2022-12-18T00:25:00;22.10;;;12.20;;
24995;SDS011;13016;52.162;21.034;2022-12-18T00:27:25;23.60;;;12.70;;
24995;SDS011;13016;52.162;21.034;2022-12-18T00:29:50;21.40;;;12.20;;
24995;SDS011;13016;52.162;21.034;2022-12-18T00:32:16;20.50;;;12.50;;
24995;SDS011;13016;52.162;21.034;2022-12-18T00:34:41;26.30;;;13.70;;
24995;SDS011;13016;52.162;21.034;2022-12-18T00:37:06;22.40;;;13.10;;
24995;SDS011;13016;52.162;21.034;2022-12-18T00:39:31;22.80;;;13.00;;
24995;SDS011;13016;52.162;21.034;2022-12-18T00:41:57;23.90;;;12.60;;
24995;SDS011;13016;52.162;21.034;2022-12-18T00:44:22;24.70;;;13.00;;
24995;SDS011;13016;52.162;21.034;2022-12-18T00:46:47;24.80;;;13.50;;
24995;SDS011;13016;52.162;21.034;2022-12-18T00:49:13;23.20;;;13.40;;
24995;SDS011;13016;52.162;21.034;2022-12-18T00:51:40;25.40;;;13.20;;
24995;SDS011;13016;52.162;21.034;2022-12-18T00:54:05;24.90;;;14.40;;
24995;SDS011;13016;52.162;21.034;2022-12-18T00:56:31;22.20;;;13.10;;
24995;SDS011;13016;52.162;21.034;2022-12-18T00:58:56;25.10;;;13.60;;
24995;SDS011;13016;52.162;21.034;2022-12-18T01:01:21;21.90;;;12.40;;
24995;SDS011;13016;52.162;21.034;2022-12-18T01:03:47;23.00;;;12.60;;
24995;SDS011;13016;52.162;21.034;2022-12-18T01:06:12;23.70;;;13.10;;
24995;SDS011;13016;52.162;21.034;2022-12-18T01:08:39;26.30;;;13.50;;
24995;SDS011;13016;52.162;21.034;2022-12-18T01:11:08;21.30;;;12.70;;
24995;SDS011;13016;52.162;21.034;2022-12-18T01:13:42;26.20;;;13.40;;
24995;SDS011;13016;52.162;21.034;2022-12-18T01:16:07;25.20;;;13.90;;
24995;SDS011;13016;52.162;21.034;2022-12-18T01:18:33;29.30;;;14.70;;
24995;SDS011;13016;52.162;21.034;2022-12-18T01:20:58;25.40;;;13.60;;
24995;SDS011;13016;52.162;21.034;2022-12-18T01:23:23;24.30;;;13.80;;
24995;SDS011;13016;52.162;21.034;2022-12-18T01:25:49;22.30;;;12.80;;
24995;SDS011;13016;52.162;21.034;2022-12-18T01:28:14;24.70;;;13.40;;
24995;SDS011;13016;52.162;21.034;2022-12-18T01:30:39;29.30;;;13.30;;
24995;SDS011;13016;52.162;21.034;2022-12-18T01:33:04;25.40;;;13.00;;
24995;SDS011;13016;52.162;21.034;2022-12-18T01:35:30;28.00;;;13.50;;
24995;SDS011;13016;52.162;21.034;2022-12-18T01:37:56;24.10;;;13.30;;
24995;SDS011;13016;52.162;21.034;2022-12-18T01:40:21;25.70;;;14.30;;
24995;SDS011;13016;52.162;21.034;2022-12-18T01:42:53;28.90;;;15.40;;
24995;SDS011;13016;52.162;21.034;2022-12-18T01:47:52;23.50;;;12.50;;
24995;SDS011;13016;52.162;21.034;2022-12-18T01:50:30;26.00;;;13.90;;
24995;SDS011;13016;52.162;21.034;2022-12-18T01:53:03;30.10;;;14.60;;
24995;SDS011;13016;52.162;21.034;2022-12-18T01:55:31;30.40;;;13.90;;
24995;SDS011;13016;52.162;21.034;2022-12-18T01:58:00;23.00;;;13.30;;
24995;SDS011;13016;52.162;21.034;2022-12-18T02:00:26;25.00;;;13.20;;
24995;SDS011;13016;52.162;21.034;2022-12-18T02:02:53;27.60;;;13.20;;
24995;SDS011;13016;52.162;21.034;2022-12-18T02:05:25;24.20;;;12.40;;
24995;SDS011;13016;52.162;21.034;2022-12-18T02:10:39;26.00;;;13.30;;
24995;SDS011;13016;52.162;21.034;2022-12-18T02:13:27;26.00;;;12.80;;
24995;SDS011;13016;52.162;21.034;2022-12-18T02:18:59;28.80;;;13.80;;
24995;SDS011;13016;52.162;21.034;2022-12-18T02:21:39;26.90;;;13.80;;
24995;SDS011;13016;52.162;21.034;2022-12-18T02:26:52;27.70;;;13.60;;
24995;SDS011;13016;52.162;21.034;2022-12-18T02:29:44;25.40;;;13.20;;
24995;SDS011;13016;52.162;21.034;2022-12-18T02:32:18;31.40;;;13.40;;
24995;SDS011;13016;52.162;21.034;2022-12-18T02:34:49;28.30;;;13.40;;
24995;SDS011;13016;52.162;21.034;2022-12-18T02:37:17;25.50;;;12.80;;
24995;SDS011;13016;52.162;21.034;2022-12-18T02:39:45;28.70;;;12.90;;
24995;SDS011;13016;52.162;21.034;2022-12-18T02:42:13;28.80;;;14.20;;
24995;SDS011;13016;52.162;21.034;2022-12-18T02:44:46;27.80;;;13.70;;
24995;SDS011;13016;52.162;21.034;2022-12-18T02:47:13;25.70;;;13.60;;
24995;SDS011;13016;52.162;21.034;2022-12-18T03:00:22;27.30;;;13.50;;
24995;SDS011;13016;52.162;21.034;2022-12-18T03:02:55;28.20;;;13.90;;
24995;SDS011;13016;52.162;21.034;2022-12-18T03:05:29;31.40;;;14.90;;
24995;SDS011;13016;52.162;21.034;2022-12-18T03:10:31;25.00;;;12.90;;
24995;SDS011;13016;52.162;21.034;2022-12-18T03:13:02;27.90;;;14.50;;
24995;SDS011;13016;52.162;21.034;2022-12-18T03:15:42;32.50;;;14.70;;
24995;SDS011;13016;52.162;21.034;2022-12-18T03:18:10;28.10;;;14.10;;
24995;SDS011;13016;52.162;21.034;2022-12-18T03:20:41;29.70;;;14.40;;
24995;SDS011;13016;52.162;21.034;2022-12-18T03:23:09;28.60;;;14.10;;
24995;SDS011;13016;52.162;21.034;2022-12-18T03:25:41;29.20;;;14.70;;
24995;SDS011;13016;52.162;21.034;2022-12-18T03:28:10;26.70;;;13.20;;
24995;SDS011;13016;52.162;21.034;2022-12-18T03:30:40;26.90;;;13.60;;
24995;SDS011;13016;52.162;21.034;2022-12-18T03:33:25;27.60;;;14.60;;
24995;SDS011;13016;52.162;21.034;2022-12-18T03:35:55;27.40;;;13.70;;
24995;SDS011;13016;52.162;21.034;2022-12-18T03:38:21;27.00;;;14.40;;
24995;SDS011;13016;52.162;21.034;2022-12-18T03:43:16;30.60;;;14.80;;
24995;SDS011;13016;52.162;21.034;2022-12-18T03:45:51;29.50;;;14.90;;
24995;SDS011;13016;52.162;21.034;2022-12-18T03:48:37;29.10;;;13.90;;
24995;SDS011;13016;52.162;21.034;2022-12-18T03:51:10;31.00;;;15.00;;
24995;SDS011;13016;52.162;21.034;2022-12-18T03:56:13;30.10;;;13.60;;
24995;SDS011;13016;52.162;21.034;2022-12-18T03:58:41;28.30;;;14.00;;
24995;SDS011;13016;52.162;21.034;2022-12-18T04:01:08;28.50;;;14.00;;
24995;SDS011;13016;52.162;21.034;2022-12-18T04:03:37;28.10;;;14.30;;
24995;SDS011;13016;52.162;21.034;2022-12-18T04:06:03;28.30;;;13.70;;
24995;SDS011;13016;52.162;21.034;2022-12-18T04:08:31;25.80;;;13.10;;
24995;SDS011;13016;52.162;21.034;2022-12-18T04:10:56;27.10;;;13.40;;
24995;SDS011;13016;52.162;21.034;2022-12-18T04:13:23;27.60;;;14.10;;
24995;SDS011;13016;52.162;21.034;2022-12-18T04:15:49;27.60;;;13.80;;
24995;SDS011;13016;52.162;21.034;2022-12-18T04:18:15;29.10;;;12.50;;
24995;SDS011;13016;52.162;21.034;2022-12-18T04:20:40;28.50;;;14.20;;
24995;SDS011;13016;52.162;21.034;2022-12-18T04:23:05;27.40;;;13.80;;
24995;SDS011;13016;52.162;21.034;2022-12-18T04:25:30;29.20;;;13.70;;
24995;SDS011;13016;52.162;21.034;2022-12-18T04:27:56;30.50;;;13.20;;
24995;SDS011;13016;52.162;21.034;2022-12-18T04:30:21;28.90;;;14.20;;
24995;SDS011;13016;52.162;21.034;2022-12-18T04:32:46;26.20;;;13.00;;
24995;SDS011;13016;52.162;21.034;2022-12-18T04:35:11;29.90;;;13.70;;
24995;SDS011;13016;52.162;21.034;2022-12-18T04:37:37;28.20;;;13.10;;
24995;SDS011;13016;52.162;21.034;2022-12-18T04:40:02;27.50;;;13.50;;
24995;SDS011;13016;52.162;21.034;2022-12-18T04:42:28;27.80;;;13.30;;
24995;SDS011;13016;52.162;21.034;2022-12-18T04:44:54;29.90;;;13.80;;
24995;SDS011;13016;52.162;21.034;2022-12-18T04:47:19;28.50;;;14.30;;
24995;SDS011;13016;52.162;21.034;2022-12-18T04:49:44;29.70;;;13.20;;
24995;SDS011;13016;52.162;21.034;2022-12-18T04:52:09;28.90;;;13.60;;
24995;SDS011;13016;52.162;21.034;2022-12-18T04:54:34;29.40;;;13.50;;
24995;SDS011;13016;52.162;21.034;2022-12-18T04:57:00;26.50;;;13.30;;
24995;SDS011;13016;52.162;21.034;2022-12-18T04:59:25;27.10;;;12.80;;
24995;SDS011;13016;52.162;21.034;2022-12-18T05:01:50;26.20;;;14.20;;
24995;SDS011;13016;52.162;21.034;2022-12-18T05:04:15;31.20;;;13.40;;
24995;SDS011;13016;52.162;21.034;2022-12-18T05:06:41;26.80;;;13.40;;
24995;SDS011;13016;52.162;21.034;2022-12-18T05:09:06;26.60;;;13.50;;
24995;SDS011;13016;52.162;21.034;2022-12-18T05:11:31;26.60;;;13.10;;
24995;SDS011;13016;52.162;21.034;2022-12-18T05:13:56;27.80;;;12.20;;
24995;SDS011;13016;52.162;21.034;2022-12-18T05:16:22;25.60;;;13.00;;
24995;SDS011;13016;52.162;21.034;2022-12-18T05:18:47;26.80;;;13.50;;
24995;SDS011;13016;52.162;21.034;2022-12-18T05:21:12;25.10;;;13.30;;
24995;SDS011;13016;52.162;21.034;2022-12-18T05:23:38;27.40;;;13.30;;
24995;SDS011;13016;52.162;21.034;2022-12-18T05:26:04;27.20;;;13.40;;
24995;SDS011;13016;52.162;21.034;2022-12-18T05:28:31;27.40;;;13.10;;
24995;SDS011;13016;52.162;21.034;2022-12-18T05:30:59;27.00;;;14.10;;
24995;SDS011;13016;52.162;21.034;2022-12-18T05:33:26;28.50;;;13.90;;
24995;SDS011;13016;52.162;21.034;2022-12-18T05:35:54;30.00;;;13.80;;
24995;SDS011;13016;52.162;21.034;2022-12-18T05:38:22;29.10;;;14.40;;
24995;SDS011;13016;52.162;21.034;2022-12-18T05:40:48;27.50;;;13.80;;
24995;SDS011;13016;52.162;21.034;2022-12-18T05:43:14;26.20;;;13.70;;
24995;SDS011;13016;52.162;21.034;2022-12-18T05:45:40;33.50;;;15.20;;
24995;SDS011;13016;52.162;21.034;2022-12-18T05:48:06;34.40;;;15.80;;
24995;SDS011;13016;52.162;21.034;2022-12-18T05:50:39;30.80;;;14.90;;
24995;SDS011;13016;52.162;21.034;2022-12-18T05:53:06;31.10;;;14.90;;
24995;SDS011;13016;52.162;21.034;2022-12-18T05:55:34;31.60;;;15.20;;
24995;SDS011;13016;52.162;21.034;2022-12-18T05:58:01;35.20;;;16.60;;
24995;SDS011;13016;52.162;21.034;2022-12-18T06:00:28;38.40;;;16.00;;
24995;SDS011;13016;52.162;21.034;2022-12-18T06:02:54;35.00;;;15.60;;
24995;SDS011;13016;52.162;21.034;2022-12-18T06:05:19;36.80;;;15.60;;
24995;SDS011;13016;52.162;21.034;2022-12-18T06:07:45;33.60;;;15.80;;
24995;SDS011;13016;52.162;21.034;2022-12-18T06:10:10;38.20;;;18.20;;
24995;SDS011;13016;52.162;21.034;2022-12-18T06:12:35;33.50;;;15.80;;
24995;SDS011;13016;52.162;21.034;2022-12-18T06:15:01;35.50;;;16.20;;
24995;SDS011;13016;52.162;21.034;2022-12-18T06:17:30;33.10;;;15.50;;
24995;SDS011;13016;52.162;21.034;2022-12-18T06:19:56;35.50;;;16.50;;
24995;SDS011;13016;52.162;21.034;2022-12-18T06:22:21;35.60;;;15.40;;
24995;SDS011;13016;52.162;21.034;2022-12-18T06:24:46;36.00;;;15.90;;
24995;SDS011;13016;52.162;21.034;2022-12-18T06:27:12;36.20;;;17.10;;
24995;SDS011;13016;52.162;21.034;2022-12-18T06:29:37;33.50;;;15.50;;
24995;SDS011;13016;52.162;21.034;2022-12-18T06:32:02;33.40;;;15.80;;
24995;SDS011;13016;52.162;21.034;2022-12-18T06:34:28;36.10;;;17.50;;
24995;SDS011;13016;52.162;21.034;2022-12-18T06:36:56;35.50;;;15.70;;
24995;SDS011;13016;52.162;21.034;2022-12-18T06:39:21;35.10;;;15.80;;
24995;SDS011;13016;52.162;21.034;2022-12-18T06:41:46;34.80;;;15.50;;
24995;SDS011;13016;52.162;21.034;2022-12-18T06:44:11;30.50;;;15.30;;
24995;SDS011;13016;52.162;21.034;2022-12-18T06:46:37;33.60;;;14.90;;
24995;SDS011;13016;52.162;21.034;2022-12-18T06:49:02;35.30;;;15.90;;
24995;SDS011;13016;52.162;21.034;2022-12-18T06:51:27;34.10;;;15.50;;
24995;SDS011;13016;52.162;21.034;2022-12-18T06:53:52;33.20;;;15.20;;
24995;SDS011;13016;52.162;21.034;2022-12-18T06:56:18;40.80;;;16.40;;
24995;SDS011;13016;52.162;21.034;2022-12-18T06:58:43;35.20;;;15.50;;
24995;SDS011;13016;52.162;21.034;2022-12-18T07:01:09;32.30;;;16.00;;
24995;SDS011;13016;52.162;21.034;2022-12-18T07:03:36;31.70;;;14.70;;
24995;SDS011;13016;52.162;21.034;2022-12-18T07:06:02;37.30;;;16.00;;
24995;SDS011;13016;52.162;21.034;2022-12-18T07:08:28;34.10;;;15.00;;
24995;SDS011;13016;52.162;21.034;2022-12-18T07:10:54;34.90;;;15.40;;
24995;SDS011;13016;52.162;21.034;2022-12-18T07:13:20;34.50;;;15.80;;
24995;SDS011;13016;52.162;21.034;2022-12-18T07:15:45;34.60;;;15.90;;
24995;SDS011;13016;52.162;21.034;2022-12-18T07:18:10;31.80;;;14.50;;
24995;SDS011;13016;52.162;21.034;2022-12-18T07:20:35;37.70;;;17.20;;
24995;SDS011;13016;52.162;21.034;2022-12-18T07:23:01;35.50;;;16.10;;
24995;SDS011;13016;52.162;21.034;2022-12-18T07:25:28;35.30;;;15.70;;
24995;SDS011;13016;52.162;21.034;2022-12-18T07:27:53;35.00;;;16.40;;
24995;SDS011;13016;52.162;21.034;2022-12-18T07:30:19;34.50;;;16.40;;
24995;SDS011;13016;52.162;21.034;2022-12-18T07:32:44;38.10;;;17.30;;
24995;SDS011;13016;52.162;21.034;2022-12-18T07:35:10;36.00;;;15.60;;
24995;SDS011;13016;52.162;21.034;2022-12-18T07:37:35;35.30;;;16.80;;
24995;SDS011;13016;52.162;21.034;2022-12-18T07:40:00;32.00;;;15.70;;
24995;SDS011;13016;52.162;21.034;2022-12-18T07:42:25;37.20;;;16.20;;
24995;SDS011;13016;52.162;21.034;2022-12-18T07:44:51;33.50;;;16.40;;
24995;SDS011;13016;52.162;21.034;2022-12-18T07:47:16;34.10;;;16.20;;
24995;SDS011;13016;52.162;21.034;2022-12-18T07:49:41;35.50;;;16.20;;
24995;SDS011;13016;52.162;21.034;2022-12-18T07:52:06;35.30;;;16.70;;
24995;SDS011;13016;52.162;21.034;2022-12-18T07:54:32;40.20;;;17.40;;
24995;SDS011;13016;52.162;21.034;2022-12-18T07:56:57;37.60;;;16.30;;
24995;SDS011;13016;52.162;21.034;2022-12-18T07:59:22;38.70;;;16.10;;
24995;SDS011;13016;52.162;21.034;2022-12-18T08:01:48;37.70;;;16.70;;
24995;SDS011;13016;52.162;21.034;2022-12-18T08:04:13;36.60;;;16.30;;
24995;SDS011;13016;52.162;21.034;2022-12-18T08:06:38;38.30;;;17.20;;
24995;SDS011;13016;52.162;21.034;2022-12-18T08:09:03;39.60;;;17.30;;
24995;SDS011;13016;52.162;21.034;2022-12-18T08:11:29;39.30;;;16.90;;
24995;SDS011;13016;52.162;21.034;2022-12-18T08:13:54;36.00;;;16.60;;
24995;SDS011;13016;52.162;21.034;2022-12-18T08:16:20;34.20;;;15.80;;
24995;SDS011;13016;52.162;21.034;2022-12-18T08:18:46;34.80;;;18.40;;
24995;SDS011;13016;52.162;21.034;2022-12-18T08:21:13;36.00;;;16.90;;
24995;SDS011;13016;52.162;21.034;2022-12-18T08:23:41;34.10;;;16.60;;
24995;SDS011;13016;52.162;21.034;2022-12-18T08:26:07;36.30;;;16.40;;
24995;SDS011;13016;52.162;21.034;2022-12-18T08:28:33;35.50;;;15.90;;
24995;SDS011;13016;52.162;21.034;2022-12-18T08:30:59;32.60;;;15.90;;
24995;SDS011;13016;52.162;21.034;2022-12-18T08:33:24;34.50;;;15.70;;
24995;SDS011;13016;52.162;21.034;2022-12-18T08:35:50;34.20;;;16.90;;
24995;SDS011;13016;52.162;21.034;2022-12-18T08:38:16;34.30;;;16.40;;
24995;SDS011;13016;52.162;21.034;2022-12-18T08:40:41;38.50;;;17.50;;
24995;SDS011;13016;52.162;21.034;2022-12-18T08:43:07;32.40;;;16.00;;
24995;SDS011;13016;52.162;21.034;2022-12-18T08:45:35;38.90;;;16.70;;
24995;SDS011;13016;52.162;21.034;2022-12-18T08:48:00;34.00;;;16.30;;
24995;SDS011;13016;52.162;21.034;2022-12-18T08:50:25;35.60;;;16.90;;
24995;SDS011;13016;52.162;21.034;2022-12-18T08:52:50;39.40;;;19.10;;
24995;SDS011;13016;52.162;21.034;2022-12-18T08:55:16;35.20;;;16.30;;
24995;SDS011;13016;52.162;21.034;2022-12-18T08:57:41;37.70;;;17.20;;
24995;SDS011;13016;52.162;21.034;2022-12-18T09:00:06;38.10;;;17.50;;
24995;SDS011;13016;52.162;21.034;2022-12-18T09:02:32;38.10;;;18.30;;
24995;SDS011;13016;52.162;21.034;2022-12-18T09:04:57;42.40;;;17.70;;
24995;SDS011;13016;52.162;21.034;2022-12-18T09:07:23;37.60;;;17.30;;
24995;SDS011;13016;52.162;21.034;2022-12-18T09:09:48;32.90;;;16.20;;
24995;SDS011;13016;52.162;21.034;2022-12-18T09:12:13;32.70;;;16.30;;
24995;SDS011;13016;52.162;21.034;2022-12-18T09:14:39;37.30;;;17.60;;
24995;SDS011;13016;52.162;21.034;2022-12-18T09:17:04;34.40;;;18.00;;
24995;SDS011;13016;52.162;21.034;2022-12-18T09:19:29;36.20;;;18.30;;
24995;SDS011;13016;52.162;21.034;2022-12-18T09:21:54;36.90;;;17.50;;
24995;SDS011;13016;52.162;21.034;2022-12-18T09:24:20;40.40;;;18.60;;
24995;SDS011;13016;52.162;21.034;2022-12-18T09:26:48;35.70;;;17.40;;
24995;SDS011;13016;52.162;21.034;2022-12-18T09:29:14;38.80;;;17.70;;
24995;SDS011;13016;52.162;21.034;2022-12-18T09:31:40;37.00;;;18.50;;
24995;SDS011;13016;52.162;21.034;2022-12-18T09:34:05;39.20;;;18.80;;
24995;SDS011;13016;52.162;21.034;2022-12-18T09:36:31;37.30;;;18.60;;
24995;SDS011;13016;52.162;21.034;2022-12-18T09:38:59;36.20;;;17.90;;
24995;SDS011;13016;52.162;21.034;2022-12-18T09:41:37;35.60;;;18.70;;
24995;SDS011;13016;52.162;21.034;2022-12-18T09:46:59;38.80;;;19.40;;
24995;SDS011;13016;52.162;21.034;2022-12-18T09:49:31;34.30;;;17.40;;
24995;SDS011;13016;52.162;21.034;2022-12-18T09:52:05;32.60;;;17.50;;
24995;SDS011;13016;52.162;21.034;2022-12-18T09:54:39;36.80;;;18.30;;
24995;SDS011;13016;52.162;21.034;2022-12-18T09:57:09;41.70;;;20.00;;
24995;SDS011;13016;52.162;21.034;2022-12-18T09:59:38;35.00;;;18.30;;
24995;SDS011;13016;52.162;21.034;2022-12-18T10:02:20;38.20;;;18.90;;
24995;SDS011;13016;52.162;21.034;2022-12-18T10:04:54;35.80;;;19.40;;
24995;SDS011;13016;52.162;21.034;2022-12-18T10:07:29;37.30;;;18.30;;
24995;SDS011;13016;52.162;21.034;2022-12-18T10:10:21;38.80;;;19.50;;
24995;SDS011;13016;52.162;21.034;2022-12-18T10:20:55;43.50;;;21.10;;
24995;SDS011;13016;52.162;21.034;2022-12-18T10:26:03;49.50;;;22.70;;
24995;SDS011;13016;52.162;21.034;2022-12-18T10:28:31;48.90;;;23.70;;
24995;SDS011;13016;52.162;21.034;2022-12-18T10:30:58;50.30;;;24.00;;
24995;SDS011;13016;52.162;21.034;2022-12-18T10:33:27;50.20;;;23.60;;
24995;SDS011;13016;52.162;21.034;2022-12-18T10:35:54;53.30;;;24.10;;
24995;SDS011;13016;52.162;21.034;2022-12-18T10:46:37;48.70;;;23.40;;
24995;SDS011;13016;52.162;21.034;2022-12-18T10:49:02;51.80;;;23.10;;
24995;SDS011;13016;52.162;21.034;2022-12-18T10:51:37;49.00;;;23.30;;
24995;SDS011;13016;52.162;21.034;2022-12-18T10:54:12;50.00;;;23.70;;
24995;SDS011;13016;52.162;21.034;2022-12-18T10:56:39;46.00;;;21.50;;
24995;SDS011;13016;52.162;21.034;2022-12-18T10:59:06;47.00;;;22.50;;
24995;SDS011;13016;52.162;21.034;2022-12-18T11:04:29;49.30;;;22.90;;
24995;SDS011;13016;52.162;21.034;2022-12-18T11:09:30;44.10;;;21.80;;
24995;SDS011;13016;52.162;21.034;2022-12-18T11:12:04;47.20;;;22.00;;
24995;SDS011;13016;52.162;21.034;2022-12-18T11:17:17;50.70;;;22.90;;
24995;SDS011;13016;52.162;21.034;2022-12-18T11:19:45;55.30;;;24.20;;
24995;SDS011;13016;52.162;21.034;2022-12-18T11:22:36;52.00;;;21.70;;
24995;SDS011;13016;52.162;21.034;2022-12-18T11:25:04;48.00;;;22.10;;
24995;SDS011;13016;52.162;21.034;2022-12-18T11:27:47;46.20;;;22.90;;
24995;SDS011;13016;52.162;21.034;2022-12-18T11:33:09;46.00;;;21.40;;
24995;SDS011;13016;52.162;21.034;2022-12-18T11:38:23;41.10;;;20.60;;
24995;SDS011;13016;52.162;21.034;2022-12-18T11:41:00;42.10;;;20.50;;
24995;SDS011;13016;52.162;21.034;2022-12-18T11:46:26;46.20;;;21.80;;
24995;SDS011;13016;52.162;21.034;2022-12-18T11:51:38;44.90;;;21.50;;
24995;SDS011;13016;52.162;21.034;2022-12-18T11:54:14;45.60;;;21.40;;
24995;SDS011;13016;52.162;21.034;2022-12-18T11:56:46;44.60;;;21.60;;
24995;SDS011;13016;52.162;21.034;2022-12-18T11:59:30;44.20;;;21.70;;
24995;SDS011;13016;52.162;21.034;2022-12-18T12:02:19;50.40;;;23.10;;
24995;SDS011;13016;52.162;21.034;2022-12-18T12:04:50;47.80;;;22.60;;
24995;SDS011;13016;52.162;21.034;2022-12-18T12:07:57;46.60;;;21.30;;
24995;SDS011;13016;52.162;21.034;2022-12-18T12:19:22;49.20;;;22.50;;
24995;SDS011;13016;52.162;21.034;2022-12-18T12:26:53;63.20;;;30.80;;
24995;SDS011;13016;52.162;21.034;2022-12-18T12:29:23;48.60;;;21.90;;
24995;SDS011;13016;52.162;21.034;2022-12-18T12:32:16;41.50;;;20.40;;
24995;SDS011;13016;52.162;21.034;2022-12-18T12:38:33;48.80;;;22.10;;
24995;SDS011;13016;52.162;21.034;2022-12-18T12:41:06;44.10;;;20.60;;
24995;SDS011;13016;52.162;21.034;2022-12-18T12:43:43;44.60;;;21.30;;
24995;SDS011;13016;52.162;21.034;2022-12-18T12:46:11;47.00;;;21.90;;
24995;SDS011;13016;52.162;21.034;2022-12-18T12:48:48;43.80;;;21.20;;
24995;SDS011;13016;52.162;21.034;2022-12-18T12:51:23;46.30;;;21.10;;
24995;SDS011;13016;52.162;21.034;2022-12-18T12:53:51;43.80;;;21.20;;
24995;SDS011;13016;52.162;21.034;2022-12-18T12:56:20;44.40;;;22.10;;
24995;SDS011;13016;52.162;21.034;2022-12-18T12:59:01;47.70;;;22.70;;
24995;SDS011;13016;52.162;21.034;2022-12-18T13:01:47;46.70;;;22.50;;
24995;SDS011;13016;52.162;21.034;2022-12-18T13:04:27;47.20;;;22.10;;
24995;SDS011;13016;52.162;21.034;2022-12-18T13:07:10;47.90;;;22.20;;
24995;SDS011;13016;52.162;21.034;2022-12-18T13:12:58;43.80;;;21.10;;
24995;SDS011;13016;52.162;21.034;2022-12-18T13:18:04;43.60;;;22.30;;
24995;SDS011;13016;52.162;21.034;2022-12-18T13:20:39;37.10;;;19.50;;
24995;SDS011;13016;52.162;21.034;2022-12-18T13:25:47;42.90;;;20.90;;
24995;SDS011;13016;52.162;21.034;2022-12-18T13:28:13;38.70;;;19.50;;
24995;SDS011;13016;52.162;21.034;2022-12-18T13:36:11;42.90;;;20.10;;
24995;SDS011;13016;52.162;21.034;2022-12-18T13:38:39;41.70;;;21.20;;
24995;SDS011;13016;52.162;21.034;2022-12-18T13:43:43;45.90;;;21.30;;
24995;SDS011;13016;52.162;21.034;2022-12-18T13:46:17;41.10;;;20.80;;
24995;SDS011;13016;52.162;21.034;2022-12-18T13:51:48;43.20;;;20.40;;
24995;SDS011;13016;52.162;21.034;2022-12-18T13:56:49;44.80;;;21.60;;
24995;SDS011;13016;52.162;21.034;2022-12-18T14:01:45;43.80;;;21.00;;
24995;SDS011;13016;52.162;21.034;2022-12-18T14:06:52;40.00;;;19.60;;
24995;SDS011;13016;52.162;21.034;2022-12-18T14:09:24;38.30;;;18.80;;
24995;SDS011;13016;52.162;21.034;2022-12-18T14:11:51;42.00;;;21.40;;
24995;SDS011;13016;52.162;21.034;2022-12-18T14:14:18;41.00;;;19.60;;
24995;SDS011;13016;52.162;21.034;2022-12-18T14:16:45;39.50;;;19.20;;
24995;SDS011;13016;52.162;21.034;2022-12-18T14:19:12;43.80;;;19.70;;
24995;SDS011;13016;52.162;21.034;2022-12-18T14:21:40;45.10;;;21.20;;
24995;SDS011;13016;52.162;21.034;2022-12-18T14:24:15;45.60;;;20.10;;
24995;SDS011;13016;52.162;21.034;2022-12-18T14:26:45;43.00;;;20.10;;
24995;SDS011;13016;52.162;21.034;2022-12-18T14:31:43;42.20;;;19.20;;
24995;SDS011;13016;52.162;21.034;2022-12-18T14:34:14;41.10;;;19.90;;
24995;SDS011;13016;52.162;21.034;2022-12-18T14:36:51;43.10;;;19.80;;
24995;SDS011;13016;52.162;21.034;2022-12-18T14:39:17;40.70;;;17.40;;
24995;SDS011;13016;52.162;21.034;2022-12-18T14:41:43;39.40;;;19.80;;
24995;SDS011;13016;52.162;21.034;2022-12-18T14:44:10;41.90;;;21.20;;
24995;SDS011;13016;52.162;21.034;2022-12-18T14:46:38;40.30;;;20.40;;
24995;SDS011;13016;52.162;21.034;2022-12-18T14:49:14;42.80;;;20.80;;
24995;SDS011;13016;52.162;21.034;2022-12-18T14:51:58;46.70;;;20.20;;
24995;SDS011;13016;52.162;21.034;2022-12-18T14:54:25;44.40;;;21.10;;
24995;SDS011;13016;52.162;21.034;2022-12-18T15:00:07;42.20;;;20.30;;
24995;SDS011;13016;52.162;21.034;2022-12-18T15:02:44;39.50;;;20.60;;
24995;SDS011;13016;52.162;21.034;2022-12-18T15:05:24;38.90;;;20.30;;
24995;SDS011;13016;52.162;21.034;2022-12-18T15:07:52;41.10;;;20.10;;
24995;SDS011;13016;52.162;21.034;2022-12-18T15:10:29;41.00;;;19.80;;
24995;SDS011;13016;52.162;21.034;2022-12-18T15:17:59;42.80;;;19.50;;
24995;SDS011;13016;52.162;21.034;2022-12-18T15:20:26;36.00;;;18.00;;
24995;SDS011;13016;52.162;21.034;2022-12-18T15:22:51;38.50;;;18.50;;
24995;SDS011;13016;52.162;21.034;2022-12-18T15:27:58;39.60;;;19.00;;
24995;SDS011;13016;52.162;21.034;2022-12-18T15:30:24;35.90;;;17.10;;
24995;SDS011;13016;52.162;21.034;2022-12-18T15:32:50;33.20;;;18.00;;
24995;SDS011;13016;52.162;21.034;2022-12-18T15:35:19;39.30;;;18.30;;
24995;SDS011;13016;52.162;21.034;2022-12-18T15:37:51;36.60;;;18.70;;
24995;SDS011;13016;52.162;21.034;2022-12-18T15:40:21;40.10;;;18.00;;
24995;SDS011;13016;52.162;21.034;2022-12-18T15:42:48;32.80;;;17.10;;
24995;SDS011;13016;52.162;21.034;2022-12-18T15:45:16;29.90;;;15.90;;
24995;SDS011;13016;52.162;21.034;2022-12-18T15:47:41;36.70;;;16.70;;
24995;SDS011;13016;52.162;21.034;2022-12-18T15:50:06;32.50;;;15.90;;
24995;SDS011;13016;52.162;21.034;2022-12-18T15:52:40;31.90;;;16.50;;
24995;SDS011;13016;52.162;21.034;2022-12-18T15:55:18;38.30;;;18.20;;
24995;SDS011;13016;52.162;21.034;2022-12-18T15:57:46;38.90;;;17.70;;
24995;SDS011;13016;52.162;21.034;2022-12-18T16:00:11;36.70;;;19.20;;
24995;SDS011;13016;52.162;21.034;2022-12-18T16:02:37;37.10;;;18.70;;
24995;SDS011;13016;52.162;21.034;2022-12-18T16:05:02;35.40;;;17.40;;
24995;SDS011;13016;52.162;21.034;2022-12-18T16:07:28;38.50;;;19.10;;
24995;SDS011;13016;52.162;21.034;2022-12-18T16:09:53;36.30;;;17.90;;
24995;SDS011;13016;52.162;21.034;2022-12-18T16:12:21;34.40;;;18.30;;
24995;SDS011;13016;52.162;21.034;2022-12-18T16:14:48;35.60;;;17.60;;
24995;SDS011;13016;52.162;21.034;2022-12-18T16:17:14;38.10;;;18.30;;
24995;SDS011;13016;52.162;21.034;2022-12-18T16:19:39;38.40;;;18.10;;
24995;SDS011;13016;52.162;21.034;2022-12-18T16:22:05;38.20;;;17.90;;
24995;SDS011;13016;52.162;21.034;2022-12-18T16:24:32;33.70;;;17.40;;